createdAt,value
2022-08-01T00:00:03.155Z,2.75
2022-08-01T00:02:29.853Z,2.85
2022-08-01T00:04:56.576Z,3.30
2022-08-01T00:07:23.233Z,3.83
2022-08-01T00:09:50.065Z,2.65
2022-08-01T00:12:19.647Z,2.72
2022-08-01T00:14:46.468Z,2.70
2022-08-01T00:17:13.254Z,3.03
2022-08-01T00:19:43.030Z,2.50
2022-08-01T00:22:09.870Z,3.40
2022-08-01T00:24:36.594Z,2.97
2022-08-01T00:27:03.325Z,2.40
2022-08-01T00:30:10.916Z,2.40
2022-08-01T00:32:16.957Z,2.42
2022-08-01T00:34:43.622Z,2.40
2022-08-01T00:37:10.520Z,2.38
2022-08-01T00:39:42.044Z,2.40
2022-08-01T00:42:11.420Z,2.72
2022-08-01T00:44:38.332Z,2.50
2022-08-01T00:47:05.999Z,2.50
2022-08-01T00:49:32.717Z,2.97
2022-08-01T00:51:59.713Z,2.38
2022-08-01T00:54:28.351Z,2.45
2022-08-01T00:56:55.606Z,2.35
2022-08-01T00:59:22.693Z,1.95
2022-08-01T01:01:50.430Z,1.98
2022-08-01T01:04:17.935Z,2.10
2022-08-01T01:07:03.326Z,2.10
2022-08-01T01:09:33.125Z,2.08
2022-08-01T01:11:59.755Z,2.20
2022-08-01T01:14:39.026Z,2.08
2022-08-01T01:17:08.601Z,1.95
2022-08-01T01:19:40.092Z,1.92
2022-08-01T01:22:09.554Z,2.17
2022-08-01T01:24:42.190Z,2.28
2022-08-01T01:27:15.499Z,2.25
2022-08-01T01:29:58.882Z,2.30
2022-08-01T01:32:36.140Z,2.20
2022-08-01T01:35:15.192Z,2.00
2022-08-01T01:37:42.609Z,2.10
2022-08-01T01:40:10.899Z,1.60
2022-08-01T01:42:37.988Z,1.88
2022-08-01T01:45:05.615Z,2.10
2022-08-01T01:47:32.966Z,1.73
2022-08-01T01:50:01.119Z,1.80
2022-08-01T01:52:28.361Z,2.75
2022-08-01T01:54:55.303Z,1.90
2022-08-01T01:57:22.193Z,1.90
2022-08-01T01:59:48.941Z,1.70
2022-08-01T02:02:17.285Z,1.90
2022-08-01T02:04:45.778Z,1.80
2022-08-01T02:07:13.644Z,2.03
2022-08-01T02:09:42.031Z,2.08
2022-08-01T02:12:11.648Z,1.73
2022-08-01T02:14:41.127Z,1.90
2022-08-01T02:17:07.646Z,1.88
2022-08-01T02:19:37.904Z,1.92
2022-08-01T02:22:05.623Z,1.98
2022-08-01T02:24:40.827Z,1.50
2022-08-01T02:27:10.359Z,1.95
2022-08-01T02:29:39.246Z,1.70
2022-08-01T02:32:06.323Z,1.80
2022-08-01T02:34:34.140Z,1.70
2022-08-01T02:37:01.579Z,2.20
2022-08-01T02:39:29.682Z,1.80
2022-08-01T02:41:59.798Z,1.60
2022-08-01T02:44:29.888Z,2.03
2022-08-01T02:47:03.338Z,2.20
2022-08-01T02:49:36.534Z,1.60
2022-08-01T02:52:06.198Z,2.00
2022-08-01T02:54:33.912Z,2.05
2022-08-01T02:57:01.460Z,1.90
2022-08-01T02:59:28.858Z,2.33
2022-08-01T03:01:57.103Z,2.00
2022-08-01T03:04:24.716Z,1.90
2022-08-01T03:06:53.045Z,1.83
2022-08-01T03:09:20.489Z,1.80
2022-08-01T03:11:47.709Z,2.13
2022-08-01T03:14:15.358Z,1.70
2022-08-01T03:16:43.179Z,1.80
2022-08-01T03:19:10.988Z,1.95
2022-08-01T03:21:39.321Z,1.90
2022-08-01T03:24:06.524Z,1.77
2022-08-01T03:26:34.193Z,1.92
2022-08-01T03:29:03.108Z,2.40
2022-08-01T03:31:29.922Z,2.30
2022-08-01T03:33:59.168Z,2.00
2022-08-01T03:36:29.795Z,2.17
2022-08-01T03:38:58.226Z,1.98
2022-08-01T03:41:26.547Z,2.50
2022-08-01T03:43:58.617Z,2.70
2022-08-01T03:46:31.629Z,1.92
2022-08-01T03:49:01.824Z,2.30
2022-08-01T03:51:30.353Z,1.90
2022-08-01T03:53:57.382Z,2.35
2022-08-01T03:56:24.153Z,1.90
2022-08-01T03:58:51.467Z,2.10
2022-08-01T04:01:18.633Z,1.90
2022-08-01T04:03:45.216Z,3.10
2022-08-01T04:06:11.830Z,2.30
2022-08-01T04:08:38.829Z,2.25
2022-08-01T04:11:05.702Z,2.35
2022-08-01T04:13:37.221Z,2.10
2022-08-01T04:16:04.864Z,2.40
2022-08-01T04:18:31.235Z,2.15
2022-08-01T04:20:57.548Z,2.13
2022-08-01T04:23:26.992Z,2.35
2022-08-01T04:25:53.585Z,2.47
2022-08-01T04:28:20.940Z,2.83
2022-08-01T04:30:47.828Z,2.33
2022-08-01T04:33:17.238Z,2.83
2022-08-01T04:36:01.909Z,2.35
2022-08-01T04:38:32.892Z,2.50
2022-08-01T04:41:09.455Z,2.78
2022-08-01T04:43:36.928Z,3.30
2022-08-01T04:46:04.915Z,2.60
2022-08-01T04:48:35.366Z,2.85
2022-08-01T04:51:01.715Z,3.38
2022-08-01T04:53:28.831Z,3.58
2022-08-01T04:55:55.610Z,4.75
2022-08-01T04:58:21.972Z,3.78
2022-08-01T05:00:48.367Z,4.00
2022-08-01T05:03:14.822Z,4.53
2022-08-01T05:05:53.542Z,3.85
2022-08-01T05:08:19.878Z,4.97
2022-08-01T05:10:46.356Z,5.25
2022-08-01T05:13:12.697Z,7.38
2022-08-01T05:15:39.028Z,6.55
2022-08-01T05:18:05.388Z,6.50
2022-08-01T05:20:34.972Z,6.45
2022-08-01T05:23:01.327Z,7.50
2022-08-01T05:25:57.261Z,11.75
2022-08-01T05:28:19.005Z,22.55
2022-08-01T05:30:45.820Z,35.45
2022-08-01T05:33:12.348Z,22.45
2022-08-01T05:35:48.907Z,25.17
2022-08-01T05:38:16.003Z,21.65
2022-08-01T05:40:42.420Z,22.80
2022-08-01T05:43:08.853Z,22.23
2022-08-01T05:45:35.238Z,22.40
2022-08-01T05:48:01.588Z,16.80
2022-08-01T05:50:27.922Z,23.92
2022-08-01T05:52:54.290Z,24.48
2022-08-01T05:55:20.866Z,23.75
2022-08-01T05:57:47.172Z,19.17
2022-08-01T06:00:15.546Z,18.13
2022-08-01T06:02:43.304Z,21.55
2022-08-01T06:05:13.295Z,17.48
2022-08-01T06:07:40.847Z,17.70
2022-08-01T06:10:07.537Z,19.98
2022-08-01T06:12:35.778Z,17.17
2022-08-01T06:15:02.438Z,16.42
2022-08-01T06:17:28.799Z,15.63
2022-08-01T06:41:00.059Z,11.88
2022-08-01T06:43:26.807Z,13.55
2022-08-01T06:45:53.268Z,11.80
2022-08-01T06:48:19.722Z,11.68
2022-08-01T06:50:46.572Z,13.30
2022-08-01T06:53:12.885Z,11.05
2022-08-01T06:55:39.794Z,13.00
2022-08-01T06:58:06.275Z,11.43
2022-08-01T07:00:32.847Z,11.05
2022-08-01T07:03:04.955Z,12.00
2022-08-01T07:05:32.059Z,12.02
2022-08-01T07:07:58.883Z,13.32
2022-08-01T07:21:40.742Z,12.52
2022-08-01T07:24:13.337Z,10.98
2022-08-01T07:26:52.232Z,11.50
2022-08-01T07:29:20.689Z,17.67
2022-08-01T07:31:47.102Z,18.48
2022-08-01T07:34:13.473Z,14.02
2022-08-01T07:36:40.008Z,13.30
2022-08-01T07:39:06.415Z,12.93
2022-08-01T07:41:53.208Z,12.05
2022-08-01T07:44:19.334Z,13.32
2022-08-01T07:46:46.068Z,10.35
2022-08-01T07:49:12.559Z,12.40
2022-08-01T07:51:39.288Z,13.63
2022-08-01T07:54:05.839Z,11.75
2022-08-01T07:56:32.365Z,11.50
2022-08-01T07:58:58.777Z,12.70
2022-08-01T08:01:25.376Z,12.85
2022-08-01T08:03:51.846Z,15.27
2022-08-01T08:06:18.187Z,12.75
2022-08-01T08:08:44.606Z,12.15
2022-08-01T08:11:11.016Z,12.88
2022-08-01T08:13:37.478Z,10.45
2022-08-01T08:16:03.935Z,9.82
2022-08-01T08:18:33.348Z,10.73
2022-08-01T08:21:02.358Z,11.07
2022-08-01T08:23:52.348Z,10.00
2022-08-01T08:26:18.863Z,10.32
2022-08-01T08:28:45.287Z,10.02
2022-08-01T08:31:24.596Z,10.25
2022-08-01T08:33:58.051Z,7.85
2022-08-01T08:36:31.088Z,8.43
2022-08-01T08:38:58.288Z,11.48
2022-08-01T08:41:24.871Z,8.20
2022-08-01T08:43:51.280Z,8.95
2022-08-01T08:46:17.753Z,8.95
2022-08-01T08:48:54.883Z,9.38
2022-08-01T08:51:22.032Z,10.50
2022-08-01T08:53:49.714Z,10.63
2022-08-01T08:56:16.158Z,8.25
2022-08-01T08:58:43.647Z,8.15
2022-08-01T09:01:11.057Z,7.10
2022-08-01T09:03:40.849Z,8.00
2022-08-01T09:06:07.261Z,8.32
2022-08-01T09:08:34.292Z,7.93
2022-08-01T09:11:00.732Z,10.88
2022-08-01T09:13:27.092Z,10.15
2022-08-01T09:15:54.954Z,8.85
2022-08-01T09:18:28.711Z,6.70
2022-08-01T09:21:11.675Z,6.88
2022-08-01T09:23:54.072Z,9.25
2022-08-01T09:26:31.778Z,7.82
2022-08-01T09:28:58.562Z,8.35
2022-08-01T09:31:27.474Z,7.70
2022-08-01T09:34:05.050Z,9.68
2022-08-01T09:36:44.848Z,86.28
2022-08-01T09:39:15.198Z,53.90
2022-08-01T09:41:41.939Z,47.53
2022-08-01T09:44:08.685Z,68.03
2022-08-01T09:46:35.089Z,53.30
2022-08-01T09:49:02.949Z,40.38
2022-08-01T09:51:58.884Z,46.03
2022-08-01T09:54:32.981Z,45.17
2022-08-01T09:57:16.082Z,50.55
2022-08-01T09:59:58.302Z,59.55
2022-08-01T10:02:34.170Z,54.92
2022-08-01T10:05:03.622Z,60.53
2022-08-01T10:07:44.046Z,81.40
2022-08-01T10:10:15.159Z,73.90
2022-08-01T10:12:45.339Z,90.97
2022-08-01T10:15:12.413Z,77.28
2022-08-01T10:17:51.198Z,92.53
2022-08-01T10:20:28.844Z,101.65
2022-08-01T10:22:59.637Z,73.43
2022-08-01T10:25:42.379Z,137.45
2022-08-01T10:28:18.230Z,113.63
2022-08-01T10:30:48.678Z,103.75
2022-08-01T10:33:19.999Z,111.55
2022-08-01T10:36:03.127Z,121.05
2022-08-01T10:38:29.598Z,153.23
2022-08-01T10:40:56.804Z,106.22
2022-08-01T10:43:23.165Z,163.82
2022-08-01T10:45:49.980Z,117.38
2022-08-01T10:48:21.896Z,169.55
2022-08-01T10:50:53.144Z,153.48
2022-08-01T10:53:24.480Z,184.13
2022-08-01T10:55:59.292Z,226.70
2022-08-01T10:58:42.918Z,197.25
2022-08-01T11:01:21.949Z,215.30
2022-08-01T11:04:17.794Z,225.85
2022-08-01T11:09:11.269Z,325.80
2022-08-01T11:12:06.217Z,257.85
2022-08-01T11:14:54.831Z,272.00
2022-08-01T11:17:37.757Z,309.33
2022-08-01T11:20:09.948Z,249.23
2022-08-01T11:22:54.929Z,248.00
2022-08-01T11:26:06.012Z,295.88
2022-08-01T11:28:30.093Z,322.30
2022-08-01T11:31:11.736Z,325.05
2022-08-01T11:33:46.072Z,303.05
2022-08-01T11:36:12.830Z,310.83
2022-08-01T11:38:48.043Z,260.90
2022-08-01T11:41:23.613Z,247.77
2022-08-01T11:44:11.822Z,263.85
2022-08-01T11:47:00.004Z,273.97
2022-08-01T11:49:29.100Z,280.63
2022-08-01T11:52:01.883Z,274.17
2022-08-01T11:54:35.274Z,285.10
2022-08-01T11:57:09.847Z,297.20
2022-08-01T11:59:51.946Z,224.45
2022-08-01T12:02:35.062Z,256.33
2022-08-01T12:05:04.942Z,271.02
2022-08-01T12:07:32.912Z,257.92
2022-08-01T12:10:04.727Z,247.07
2022-08-01T12:12:32.328Z,164.43
2022-08-01T12:15:00.489Z,255.13
2022-08-01T12:17:30.665Z,246.85
2022-08-01T12:19:56.969Z,252.57
2022-08-01T12:22:26.439Z,250.05
2022-08-01T12:24:53.167Z,212.35
2022-08-01T12:27:26.659Z,237.82
2022-08-01T12:29:53.003Z,230.57
2022-08-01T12:32:30.897Z,211.25
2022-08-01T12:35:06.863Z,218.60
2022-08-01T12:37:35.752Z,208.15
2022-08-01T12:40:03.059Z,181.48
2022-08-01T12:42:29.564Z,231.63
2022-08-01T12:44:56.091Z,248.88
2022-08-01T12:47:22.626Z,215.57
2022-08-01T12:49:52.391Z,220.68
2022-08-01T12:52:23.067Z,178.98
2022-08-01T12:55:04.007Z,178.57
2022-08-01T12:57:32.978Z,166.20
2022-08-01T13:00:06.553Z,147.25
2022-08-01T13:02:34.005Z,100.05
2022-08-01T13:05:00.382Z,98.65
2022-08-01T13:07:45.688Z,63.75
2022-08-01T13:10:12.783Z,61.03
2022-08-01T13:12:40.088Z,60.05
2022-08-01T13:15:17.605Z,58.97
2022-08-01T13:17:45.265Z,60.80
2022-08-01T13:20:21.837Z,56.17
2022-08-01T13:22:48.156Z,78.55
2022-08-01T13:25:17.646Z,188.95
2022-08-01T13:27:53.598Z,143.45
2022-08-01T13:30:21.022Z,174.95
2022-08-01T13:33:00.016Z,159.15
2022-08-01T13:35:26.378Z,129.23
2022-08-01T13:37:54.314Z,103.45
2022-08-01T13:40:24.918Z,94.72
2022-08-01T13:42:51.212Z,83.15
2022-08-01T13:45:17.504Z,66.65
2022-08-01T13:48:03.619Z,53.47
2022-08-01T13:50:34.925Z,50.78
2022-08-01T13:53:01.298Z,45.13
2022-08-01T13:55:31.110Z,37.22
2022-08-01T13:58:00.771Z,35.63
2022-08-01T14:00:27.081Z,30.17
2022-08-01T14:02:53.419Z,27.17
2022-08-01T14:05:19.923Z,18.70
2022-08-01T14:07:49.442Z,11.38
2022-08-01T14:10:18.649Z,10.98
2022-08-01T14:12:46.425Z,8.20
2022-08-01T14:15:14.100Z,8.45
2022-08-01T14:18:00.987Z,8.15
2022-08-01T14:20:27.397Z,7.13
2022-08-01T14:22:53.766Z,7.63
2022-08-01T14:25:57.704Z,9.60
2022-08-01T14:28:07.146Z,9.48
2022-08-01T14:30:34.044Z,9.40
2022-08-01T14:33:00.441Z,8.30
2022-08-01T14:35:26.725Z,7.70
2022-08-01T14:37:53.349Z,10.13
2022-08-01T14:40:24.207Z,8.98
2022-08-01T14:42:50.593Z,7.80
2022-08-01T14:45:16.875Z,8.60
2022-08-01T14:47:43.637Z,9.95
2022-08-01T14:50:11.441Z,14.93
2022-08-01T14:52:38.112Z,13.88
2022-08-01T14:55:05.339Z,12.38
2022-08-01T14:57:32.018Z,10.25
2022-08-01T14:59:58.352Z,8.30
2022-08-01T15:02:27.098Z,7.93
2022-08-01T15:04:53.457Z,7.15
2022-08-01T15:07:20.222Z,6.65
2022-08-01T15:09:46.552Z,6.18
2022-08-01T15:12:13.098Z,12.40
2022-08-01T15:14:48.703Z,13.70
2022-08-01T15:17:19.429Z,23.13
2022-08-01T15:19:47.661Z,21.95
2022-08-01T15:22:14.477Z,22.98
2022-08-01T15:24:41.240Z,19.38
2022-08-01T15:27:07.547Z,35.65
2022-08-01T15:29:34.853Z,37.30
2022-08-01T15:32:01.693Z,36.92
2022-08-01T15:34:28.030Z,38.10
2022-08-01T15:36:54.378Z,33.03
2022-08-01T15:39:20.743Z,59.35
2022-08-01T15:41:47.078Z,48.40
2022-08-01T15:44:13.471Z,41.35
2022-08-01T15:46:39.765Z,32.30
2022-08-01T15:49:06.440Z,28.20
2022-08-01T15:51:33.831Z,23.30
2022-08-01T15:54:03.467Z,17.23
2022-08-01T15:56:30.842Z,16.67
2022-08-01T15:58:57.560Z,13.38
2022-08-01T16:01:24.118Z,12.85
2022-08-01T16:03:50.676Z,9.57
2022-08-01T16:06:16.990Z,7.90
2022-08-01T16:08:43.842Z,7.28
2022-08-01T16:11:10.137Z,5.97
2022-08-01T16:13:36.415Z,5.20
2022-08-01T16:16:04.820Z,3.97
2022-08-01T16:18:31.693Z,5.20
2022-08-01T16:21:01.100Z,4.30
2022-08-01T16:23:27.440Z,4.63
2022-08-01T16:25:53.911Z,6.22
2022-08-01T16:28:20.717Z,7.65
2022-08-01T16:30:50.915Z,6.53
2022-08-01T16:33:41.445Z,5.97
2022-08-01T16:36:19.221Z,5.57
2022-08-01T16:38:46.093Z,5.00
2022-08-01T16:41:20.274Z,7.68
2022-08-01T16:43:53.337Z,7.25
2022-08-01T16:46:22.644Z,8.80
2022-08-01T16:48:49.031Z,9.27
2022-08-01T16:51:17.731Z,9.52
2022-08-01T16:53:44.261Z,10.05
2022-08-01T16:56:10.562Z,9.23
2022-08-01T16:58:36.913Z,8.55
2022-08-01T17:02:01.252Z,8.20
2022-08-01T17:03:51.547Z,7.13
2022-08-01T17:06:19.237Z,7.50
2022-08-01T17:08:48.665Z,7.53
2022-08-01T17:11:15.204Z,9.45
2022-08-01T17:13:41.767Z,9.55
2022-08-01T17:16:08.465Z,9.40
2022-08-01T17:18:34.848Z,7.13
2022-08-01T17:21:01.159Z,7.10
2022-08-01T17:23:27.512Z,6.53
2022-08-01T17:25:53.827Z,6.90
2022-08-01T17:28:22.966Z,6.72
2022-08-01T17:30:49.329Z,5.65
2022-08-01T17:33:15.618Z,6.38
2022-08-01T17:35:41.919Z,8.48
2022-08-01T17:38:09.681Z,96.65
2022-08-01T17:40:40.823Z,298.77
2022-08-01T17:43:07.560Z,310.45
2022-08-01T17:45:38.090Z,322.35
2022-08-01T17:48:07.032Z,355.23
2022-08-01T17:50:33.314Z,306.40
2022-08-01T17:53:02.748Z,251.10
2022-08-01T17:55:55.445Z,196.05
2022-08-01T18:00:44.694Z,109.40
2022-08-01T18:03:12.630Z,103.40
2022-08-01T18:05:40.102Z,61.05
2022-08-01T18:08:07.487Z,44.20
2022-08-01T18:10:33.813Z,42.30
2022-08-01T18:13:01.511Z,39.65
2022-08-01T18:15:28.964Z,33.72
2022-08-01T18:17:59.106Z,29.10
2022-08-01T18:20:25.599Z,26.08
2022-08-01T18:22:52.408Z,24.02
2022-08-01T18:25:19.904Z,24.25
2022-08-01T18:28:23.660Z,22.88
2022-08-01T18:30:32.792Z,21.00
2022-08-01T18:32:59.117Z,17.38
2022-08-01T18:35:36.523Z,16.60
2022-08-01T18:38:12.444Z,16.60
2022-08-01T18:40:39.840Z,16.38
2022-08-01T18:43:06.283Z,13.80
2022-08-01T18:45:32.811Z,12.18
2022-08-01T18:47:59.884Z,11.32
2022-08-01T18:50:26.973Z,8.95
2022-08-01T18:52:53.258Z,13.75
2022-08-01T18:55:20.729Z,14.75
2022-08-01T18:57:53.093Z,13.05
2022-08-01T19:00:19.653Z,11.38
2022-08-01T19:02:46.081Z,9.95
2022-08-01T19:05:12.340Z,8.02
2022-08-01T19:08:04.607Z,8.13
2022-08-01T19:10:25.176Z,7.45
2022-08-01T19:12:51.651Z,7.07
2022-08-01T19:15:17.952Z,6.90
2022-08-01T19:17:47.212Z,6.38
2022-08-01T19:20:13.505Z,6.82
2022-08-01T19:22:40.008Z,6.43
2022-08-01T19:25:06.471Z,6.50
2022-08-01T19:27:34.111Z,7.78
2022-08-01T19:30:01.518Z,8.30
2022-08-01T19:32:29.260Z,10.52
2022-08-01T19:35:02.593Z,8.57
2022-08-01T19:37:29.783Z,7.57
2022-08-01T19:39:56.960Z,7.43
2022-08-01T19:42:27.095Z,7.55
2022-08-01T19:44:53.893Z,6.30
2022-08-01T19:47:20.251Z,6.55
2022-08-01T19:49:47.324Z,6.00
2022-08-01T19:52:15.214Z,5.85
2022-08-01T19:54:43.247Z,6.13
2022-08-01T19:57:11.817Z,6.90
2022-08-01T19:59:38.331Z,5.43
2022-08-01T20:02:04.994Z,6.15
2022-08-01T20:04:31.436Z,6.55
2022-08-01T20:06:57.884Z,5.68
2022-08-01T20:09:24.174Z,7.38
2022-08-01T20:11:51.882Z,5.68
2022-08-01T20:14:19.148Z,5.35
2022-08-01T20:16:48.417Z,6.25
2022-08-01T20:19:15.631Z,6.63
2022-08-01T20:22:03.146Z,6.18
2022-08-01T20:24:34.899Z,6.03
2022-08-01T20:27:07.211Z,5.40
2022-08-01T20:29:34.347Z,6.22
2022-08-01T20:32:01.540Z,4.80
2022-08-01T20:34:29.188Z,5.07
2022-08-01T20:36:57.090Z,4.82
2022-08-01T20:39:23.667Z,4.45
2022-08-01T20:41:51.757Z,5.03
2022-08-01T20:44:26.956Z,5.80
2022-08-01T20:46:54.187Z,3.65
2022-08-01T20:49:21.117Z,4.57
2022-08-01T20:51:48.845Z,3.80
2022-08-01T20:54:15.209Z,4.28
2022-08-01T20:57:03.624Z,4.63
2022-08-01T20:59:55.549Z,3.38
2022-08-01T21:02:23.498Z,3.70
2022-08-01T21:04:53.670Z,3.00
2022-08-01T21:07:29.179Z,3.13
2022-08-01T21:09:58.455Z,2.95
2022-08-01T21:12:26.085Z,2.85
2022-08-01T21:15:00.688Z,3.10
2022-08-01T21:17:27.176Z,3.47
2022-08-01T21:20:02.952Z,3.30
2022-08-01T21:22:33.410Z,2.60
2022-08-01T21:25:10.918Z,2.33
2022-08-01T21:27:39.303Z,2.72
2022-08-01T21:30:07.049Z,3.00
2022-08-01T21:32:34.873Z,2.72
2022-08-01T21:35:02.434Z,2.40
2022-08-01T21:37:29.642Z,2.83
2022-08-01T21:39:57.616Z,2.30
2022-08-01T21:42:25.890Z,2.25
2022-08-01T21:44:54.491Z,2.20
2022-08-01T21:47:22.395Z,2.58
2022-08-01T21:49:48.814Z,2.45
2022-08-01T21:52:18.007Z,2.38
2022-08-01T21:55:03.260Z,2.92
2022-08-01T21:57:31.352Z,2.50
2022-08-01T22:00:11.794Z,2.65
2022-08-01T22:02:53.800Z,2.65
2022-08-01T22:05:22.347Z,3.03
2022-08-01T22:07:52.454Z,2.90
2022-08-01T22:10:19.392Z,2.33
2022-08-01T22:12:46.491Z,3.10
2022-08-01T22:15:13.412Z,2.95
2022-08-01T22:17:40.319Z,2.40
2022-08-01T22:20:07.214Z,2.60
2022-08-01T22:22:50.831Z,3.08
2022-08-01T22:25:19.266Z,2.85
2022-08-01T22:28:08.923Z,2.33
2022-08-01T22:33:07.364Z,1.92
2022-08-01T22:35:41.732Z,2.28
2022-08-01T22:38:09.867Z,1.83
2022-08-01T22:40:39.804Z,1.92
2022-08-01T22:43:12.599Z,1.85
2022-08-01T22:45:51.416Z,2.00
2022-08-01T22:48:24.976Z,1.80
2022-08-01T22:51:01.541Z,1.90
2022-08-01T22:53:30.702Z,1.73
2022-08-01T22:55:59.206Z,1.80
2022-08-01T22:58:29.007Z,1.80
2022-08-01T23:00:56.019Z,1.48
2022-08-01T23:03:25.190Z,1.73
2022-08-01T23:06:03.281Z,1.67
2022-08-01T23:08:33.452Z,1.60
2022-08-01T23:11:01.086Z,1.90
2022-08-01T23:13:28.345Z,1.60
2022-08-01T23:15:55.021Z,1.40
2022-08-01T23:18:21.615Z,1.60
2022-08-01T23:20:49.267Z,1.42
2022-08-01T23:23:15.966Z,1.50
2022-08-01T23:25:43.591Z,2.03
2022-08-01T23:28:10.991Z,1.65
2022-08-01T23:30:37.288Z,1.60
2022-08-01T23:33:03.664Z,1.50
2022-08-01T23:35:30.477Z,1.60
2022-08-01T23:38:01.942Z,1.65
2022-08-01T23:40:29.795Z,1.50
2022-08-01T23:42:56.188Z,1.90
2022-08-01T23:45:23.142Z,1.30
2022-08-01T23:47:49.461Z,1.70
2022-08-01T23:50:15.765Z,1.52
2022-08-01T23:52:49.702Z,1.40
2022-08-01T23:55:17.155Z,1.80
2022-08-01T23:57:43.817Z,1.17
